Time;durP1;ratioP1;P1;durP2;ratioP2;P2;SDS_P1;SDS_P2;PMS_P1;PMS_P2;Temp;Humidity;BMP_temperature;BMP_pressure;BME280_temperature;BME280_humidity;BME280_pressure;Samples;Min_cycle;Max_cycle;Signal;HPM_P1;HPM_P2
2023/09/27 00:00:46;;;;;;;7.93;7.63;;;;;;;14.30;86.34;101642.16;5054040;28;20261;-68
2023/09/27 00:03:12;;;;;;;9.17;8.73;;;;;;;14.26;86.49;101643.47;5054615;28;20194;-68
2023/09/27 00:05:39;;;;;;;6.20;6.10;;;;;;;14.22;86.17;101642.06;5054065;28;20183;-68
2023/09/27 00:08:06;;;;;;;8.57;8.13;;;;;;;14.19;86.28;101645.94;5053880;28;20203;-68
2023/09/27 00:10:33;;;;;;;6.83;6.60;;;;;;;14.19;86.50;101640.56;5054159;28;20298;-69
2023/09/27 00:13:00;;;;;;;8.33;7.90;;;;;;;14.18;86.14;101644.22;5053899;28;20184;-69
2023/09/27 00:15:26;;;;;;;9.00;8.43;;;;;;;14.15;86.02;101641.84;5053800;28;20570;-69
2023/09/27 00:17:54;;;;;;;8.40;7.80;;;;;;;14.11;86.40;101636.94;5053827;28;20709;-69
2023/09/27 00:20:21;;;;;;;11.10;10.13;;;;;;;14.10;86.55;101651.38;5053762;28;20290;-68
2023/09/27 00:22:48;;;;;;;11.70;10.37;;;;;;;14.11;86.00;101645.84;5053944;28;20187;-69
2023/09/27 00:25:14;;;;;;;13.87;10.47;;;;;;;14.11;85.92;101658.44;5053977;28;20188;-69
2023/09/27 00:27:41;;;;;;;11.17;10.23;;;;;;;14.04;86.25;101652.00;5053851;28;20658;-69
2023/09/27 00:30:09;;;;;;;10.33;9.83;;;;;;;14.04;86.47;101660.06;5053513;28;20191;-68
2023/09/27 00:32:36;;;;;;;10.40;9.60;;;;;;;14.09;86.55;101665.81;5053089;28;20585;-68
2023/09/27 00:35:03;;;;;;;13.17;11.77;;;;;;;14.09;86.74;101660.44;5054418;28;20556;-68
2023/09/27 00:37:33;;;;;;;11.37;10.47;;;;;;;14.10;87.00;101664.81;5053522;28;20178;-68
2023/09/27 00:39:59;;;;;;;10.53;9.73;;;;;;;14.12;87.43;101665.53;5052121;28;20199;-68
2023/09/27 00:42:26;;;;;;;10.87;10.03;;;;;;;14.14;87.42;101663.50;5052172;28;20191;-68
2023/09/27 00:44:52;;;;;;;9.73;9.20;;;;;;;14.14;86.91;101669.75;5053383;28;20286;-68
2023/09/27 00:47:19;;;;;;;9.77;9.13;;;;;;;14.10;87.23;101672.88;5053577;28;20240;-68
2023/09/27 00:49:51;;;;;;;10.17;9.33;;;;;;;14.09;87.05;101680.09;5053224;28;20217;-68
2023/09/27 00:52:18;;;;;;;11.60;10.80;;;;;;;14.08;86.98;101685.66;5052219;28;20215;-69
2023/09/27 00:54:45;;;;;;;10.53;9.83;;;;;;;14.00;86.96;101689.06;5053755;28;20245;-69
2023/09/27 00:57:11;;;;;;;11.53;10.80;;;;;;;14.05;87.14;101694.84;5051974;28;20191;-69
2023/09/27 00:59:38;;;;;;;10.13;9.43;;;;;;;13.97;87.21;101688.53;5051950;28;20537;-69
2023/09/27 01:02:05;;;;;;;10.80;9.97;;;;;;;13.91;87.47;101697.22;5053124;28;20203;-69
2023/09/27 01:04:32;;;;;;;10.50;9.53;;;;;;;13.88;87.76;101694.78;5051827;28;20196;-69
2023/09/27 01:06:59;;;;;;;10.80;10.10;;;;;;;13.86;87.86;101696.81;5051907;28;20195;-70
2023/09/27 01:09:31;;;;;;;11.37;10.63;;;;;;;13.94;87.84;101704.97;5051986;28;20245;-70
2023/09/27 01:11:57;;;;;;;10.63;9.93;;;;;;;13.91;88.00;101706.13;5053549;28;20706;-69
2023/09/27 01:14:24;;;;;;;11.90;11.10;;;;;;;13.96;87.85;101713.75;5051614;28;20199;-69
2023/09/27 01:16:51;;;;;;;9.87;9.33;;;;;;;13.86;87.95;101705.72;5053283;28;20193;-69
2023/09/27 01:19:17;;;;;;;10.63;9.83;;;;;;;13.86;87.99;101708.41;5052997;28;20233;-69
2023/09/27 01:21:44;;;;;;;10.67;9.60;;;;;;;13.80;88.10;101710.81;5051640;28;20687;-69
2023/09/27 01:24:11;;;;;;;10.27;9.67;;;;;;;13.81;87.91;101717.91;5051701;28;20191;-69
2023/09/27 01:26:39;;;;;;;11.80;10.57;;;;;;;13.72;88.46;101722.31;5052919;28;20190;-69
2023/09/27 01:29:05;;;;;;;11.07;10.40;;;;;;;13.70;88.33;101724.31;5052827;28;20211;-69
2023/09/27 01:31:32;;;;;;;11.57;10.77;;;;;;;13.69;88.83;101715.41;5051593;28;20309;-69
2023/09/27 01:33:59;;;;;;;10.83;10.07;;;;;;;13.64;88.76;101711.47;5053395;28;20187;-69
2023/09/27 01:36:25;;;;;;;10.53;9.83;;;;;;;13.60;89.02;101702.00;5053617;28;20233;-69
2023/09/27 01:38:52;;;;;;;9.70;9.13;;;;;;;13.58;88.86;101696.78;5052853;28;20171;-68
2023/09/27 01:41:19;;;;;;;9.60;9.27;;;;;;;13.56;89.34;101701.47;5051876;28;20226;-68
2023/09/27 01:43:45;;;;;;;8.30;8.00;;;;;;;13.57;89.22;101702.31;5052749;28;20198;-68
2023/09/27 01:46:12;;;;;;;9.53;8.87;;;;;;;13.57;89.07;101705.00;5053027;28;20253;-69
2023/09/27 01:48:39;;;;;;;9.57;8.83;;;;;;;13.59;88.54;101716.44;5052900;28;20567;-69
2023/09/27 01:51:05;;;;;;;9.50;9.20;;;;;;;13.55;88.47;101726.63;5052920;28;20211;-69
2023/09/27 01:53:32;;;;;;;9.83;9.23;;;;;;;13.46;88.05;101730.19;5052970;28;20176;-68
2023/09/27 01:55:58;;;;;;;9.00;8.67;;;;;;;13.43;88.21;101732.31;5052645;28;20274;-69
2023/09/27 01:58:25;;;;;;;12.60;11.70;;;;;;;13.38;88.46;101735.44;5051314;28;20691;-69
2023/09/27 02:00:53;;;;;;;10.50;10.00;;;;;;;13.35;88.51;101725.00;5051261;28;20215;-68
2023/09/27 02:03:19;;;;;;;11.53;10.73;;;;;;;13.36;88.46;101709.72;5051321;28;20236;-68
2023/09/27 02:05:46;;;;;;;10.93;10.33;;;;;;;13.41;88.64;101710.16;5052597;28;20237;-69
2023/09/27 02:08:13;;;;;;;10.97;10.10;;;;;;;13.41;88.33;101708.28;5051470;28;20278;-69
2023/09/27 02:10:40;;;;;;;8.90;8.60;;;;;;;13.41;88.62;101719.03;5052875;28;20234;-68
2023/09/27 02:13:06;;;;;;;10.20;9.80;;;;;;;13.43;88.47;101716.19;5053019;28;20553;-68
2023/09/27 02:15:33;;;;;;;9.70;9.20;;;;;;;13.42;88.23;101718.03;5052636;28;20191;-68
2023/09/27 02:17:59;;;;;;;9.20;8.73;;;;;;;13.40;88.60;101711.97;5053576;28;20195;-68
2023/09/27 02:20:26;;;;;;;9.20;8.90;;;;;;;13.38;88.60;101726.53;5056193;28;20218;-68
2023/09/27 02:22:54;;;;;;;9.40;8.97;;;;;;;13.33;88.75;101713.53;5056021;28;20198;-68
2023/09/27 02:25:20;;;;;;;8.70;8.30;;;;;;;13.29;88.55;101714.81;5055994;28;20242;-68
2023/09/27 02:27:47;;;;;;;9.13;8.70;;;;;;;13.25;88.57;101730.38;5054638;28;20542;-68
2023/09/27 02:30:14;;;;;;;10.27;9.77;;;;;;;13.21;88.37;101725.44;5055776;28;20199;-68
2023/09/27 02:32:42;;;;;;;8.93;8.47;;;;;;;13.18;88.41;101721.22;5054575;28;20215;-68
2023/09/27 02:35:10;;;;;;;10.37;9.70;;;;;;;13.16;88.61;101725.00;5056056;28;20278;-68
2023/09/27 02:37:38;;;;;;;10.97;10.23;;;;;;;13.15;88.46;101718.78;5056565;28;20575;-68
2023/09/27 02:40:11;;;;;;;11.33;10.53;;;;;;;13.18;88.54;101712.31;5055875;28;20195;-68
2023/09/27 02:42:41;;;;;;;10.57;9.60;;;;;;;13.14;88.58;101710.91;5054414;28;20191;-68
2023/09/27 02:45:09;;;;;;;9.20;8.80;;;;;;;13.12;88.67;101702.97;5055633;28;20172;-68
2023/09/27 02:47:36;;;;;;;9.97;9.30;;;;;;;13.11;88.60;101700.47;5054285;28;20225;-68
2023/09/27 02:50:05;;;;;;;12.03;10.93;;;;;;;13.11;88.49;101698.59;5054078;28;20214;-68
2023/09/27 02:52:32;;;;;;;11.90;11.10;;;;;;;13.10;88.64;101688.88;5054246;28;20270;-68
2023/09/27 02:54:58;;;;;;;12.37;10.80;;;;;;;13.09;88.79;101678.22;5055401;28;20187;-68
2023/09/27 02:57:25;;;;;;;10.80;10.00;;;;;;;13.06;88.92;101673.16;5055802;28;20584;-69
2023/09/27 02:59:51;;;;;;;13.37;12.00;;;;;;;13.02;88.65;101674.44;5055899;28;20184;-69
2023/09/27 03:02:20;;;;;;;9.67;9.17;;;;;;;13.01;89.03;101675.44;5053913;28;20211;-68
2023/09/27 03:04:47;;;;;;;10.57;10.17;;;;;;;13.02;89.12;101663.72;5055771;28;20191;-70
2023/09/27 03:07:15;;;;;;;11.03;10.50;;;;;;;13.04;88.83;101665.25;5053938;28;20206;-69
2023/09/27 03:09:42;;;;;;;11.87;10.93;;;;;;;13.04;88.82;101664.41;5053795;28;20219;-69
2023/09/27 03:12:08;;;;;;;10.93;10.23;;;;;;;13.01;89.13;101662.84;5053761;28;20215;-68
2023/09/27 03:14:35;;;;;;;11.33;10.53;;;;;;;13.05;89.21;101669.63;5054931;28;20249;-68
2023/09/27 03:17:02;;;;;;;11.77;10.63;;;;;;;13.08;88.94;101666.66;5053718;28;20194;-68
2023/09/27 03:19:29;;;;;;;14.33;11.60;;;;;;;13.08;88.62;101666.66;5053709;28;20651;-69
2023/09/27 03:21:56;;;;;;;17.00;12.60;;;;;;;13.05;88.61;101668.78;5053568;28;20214;-69
2023/09/27 03:24:25;;;;;;;12.10;11.10;;;;;;;13.02;88.75;101667.25;5053611;28;20195;-69
2023/09/27 03:26:52;;;;;;;11.57;10.87;;;;;;;13.00;88.85;101660.31;5053548;28;20199;-69
2023/09/27 03:29:18;;;;;;;11.03;10.47;;;;;;;13.00;89.13;101671.03;5052373;28;20207;-69
2023/09/27 03:31:45;;;;;;;12.67;11.67;;;;;;;12.99;88.92;101680.09;5053679;28;20219;-69
2023/09/27 03:34:12;;;;;;;16.80;13.20;;;;;;;12.99;88.49;101680.09;5053473;28;20196;-69
2023/09/27 03:36:38;;;;;;;13.30;11.33;;;;;;;13.00;88.64;101681.78;5053357;28;20187;-69
2023/09/27 03:39:05;;;;;;;12.70;11.73;;;;;;;12.94;88.38;101672.50;5053363;28;20191;-69
2023/09/27 03:41:33;;;;;;;11.80;10.80;;;;;;;12.89;88.66;101668.53;5054449;28;20211;-69
2023/09/27 03:44:02;;;;;;;10.47;9.87;;;;;;;12.87;88.94;101667.81;5053185;28;20724;-69
2023/09/27 03:46:30;;;;;;;11.57;10.87;;;;;;;12.86;88.84;101671.50;5053394;28;20199;-69
2023/09/27 03:48:57;;;;;;;13.00;12.10;;;;;;;12.86;88.71;101658.91;5053084;28;20297;-69
2023/09/27 03:51:24;;;;;;;14.07;13.07;;;;;;;12.88;88.26;101661.47;5053000;28;20586;-68
2023/09/27 03:53:51;;;;;;;12.70;11.67;;;;;;;12.88;88.61;101661.47;5052996;28;20191;-68
2023/09/27 03:56:17;;;;;;;11.27;10.60;;;;;;;12.88;88.90;101661.47;5052944;28;20191;-68
2023/09/27 03:58:44;;;;;;;9.73;9.03;;;;;;;12.88;88.59;101669.50;5052942;28;20253;-68
2023/09/27 04:01:10;;;;;;;9.17;8.90;;;;;;;12.87;88.98;101671.34;5054071;28;20207;-68
2023/09/27 04:03:38;;;;;;;10.87;9.83;;;;;;;12.87;88.98;101671.34;5054087;28;20188;-68
2023/09/27 04:06:04;;;;;;;11.00;10.30;;;;;;;12.88;89.01;101678.41;5052799;28;20598;-69
2023/09/27 04:08:32;;;;;;;11.63;10.67;;;;;;;12.88;88.90;101674.88;5053938;28;20191;-69
2023/09/27 04:10:59;;;;;;;11.70;10.90;;;;;;;12.87;89.07;101681.22;5053904;28;20204;-68
2023/09/27 04:13:26;;;;;;;12.03;10.90;;;;;;;12.88;88.46;101682.94;5054367;28;20190;-69
2023/09/27 04:15:52;;;;;;;11.07;10.03;;;;;;;12.80;88.38;101689.03;5053732;28;20252;-69
2023/09/27 04:18:19;;;;;;;10.47;9.77;;;;;;;12.74;88.40;101684.22;5053768;28;20218;-69
2023/09/27 04:20:45;;;;;;;12.80;11.17;;;;;;;12.68;88.25;101682.97;5053881;28;20306;-69
2023/09/27 04:23:12;;;;;;;14.17;12.77;;;;;;;12.72;88.53;101683.53;5053944;28;20274;-69
2023/09/27 04:25:38;;;;;;;13.00;12.13;;;;;;;12.70;88.64;101686.34;5052396;28;20191;-69
2023/09/27 04:28:05;;;;;;;12.93;11.77;;;;;;;12.70;88.75;101693.53;5053875;28;20195;-69
2023/09/27 04:30:32;;;;;;;15.20;13.90;;;;;;;12.70;88.93;101693.53;5053703;28;20625;-69
2023/09/27 04:32:58;;;;;;;12.63;11.83;;;;;;;12.70;89.38;101690.84;5053600;28;20241;-69
2023/09/27 04:35:24;;;;;;;11.40;10.70;;;;;;;12.71;89.22;101695.22;5054045;28;20191;-69
2023/09/27 04:37:51;;;;;;;10.53;9.93;;;;;;;12.69;89.16;101695.38;5053766;28;20183;-69
2023/09/27 04:40:17;;;;;;;11.73;11.07;;;;;;;12.71;89.46;101708.66;5053041;28;20251;-69
2023/09/27 04:42:45;;;;;;;12.70;11.43;;;;;;;12.68;88.69;101717.84;5053408;28;20183;-69
2023/09/27 04:45:13;;;;;;;12.23;11.40;;;;;;;12.61;88.76;101714.00;5053356;28;20270;-69
2023/09/27 04:47:41;;;;;;;11.20;10.43;;;;;;;12.53;88.80;101713.00;5053327;28;20188;-69
2023/09/27 04:50:11;;;;;;;10.60;10.13;;;;;;;12.49;89.32;101709.78;5053303;28;20301;-69
2023/09/27 04:52:39;;;;;;;10.47;9.87;;;;;;;12.50;89.00;101703.44;5053570;28;20175;-69
2023/09/27 04:55:08;;;;;;;10.00;9.50;;;;;;;12.52;89.25;101708.66;5053745;28;20248;-69
2023/09/27 04:57:35;;;;;;;10.60;10.10;;;;;;;12.49;89.16;101704.41;5053209;28;20183;-69
2023/09/27 05:00:03;;;;;;;9.53;9.13;;;;;;;12.48;89.08;101707.22;5053071;28;20671;-70
2023/09/27 05:02:30;;;;;;;10.53;9.93;;;;;;;12.48;89.09;101704.53;5053105;28;20249;-69
2023/09/27 05:04:57;;;;;;;10.87;10.17;;;;;;;12.48;89.22;101694.66;5053389;28;20179;-69
2023/09/27 05:07:24;;;;;;;11.27;10.43;;;;;;;12.49;89.49;101698.19;5053069;28;20182;-69
2023/09/27 05:09:50;;;;;;;9.43;8.93;;;;;;;12.49;89.21;101693.69;5053271;28;20210;-69
2023/09/27 05:12:17;;;;;;;12.30;11.07;;;;;;;12.53;89.34;101700.44;5052960;28;20679;-69
2023/09/27 05:14:43;;;;;;;12.57;11.50;;;;;;;12.54;89.29;101706.66;5051765;28;20268;-69
2023/09/27 05:17:10;;;;;;;10.30;9.77;;;;;;;12.48;89.30;101697.34;5053018;28;20245;-69
2023/09/27 05:19:36;;;;;;;10.57;9.87;;;;;;;12.48;89.29;101707.22;5053550;28;20178;-69
2023/09/27 05:22:03;;;;;;;18.10;10.60;;;;;;;12.48;89.01;101715.25;5053447;28;20260;-69
2023/09/27 05:24:32;;;;;;;10.37;9.87;;;;;;;12.48;89.30;101720.63;5052890;28;20191;-69
2023/09/27 05:27:03;;;;;;;10.30;9.73;;;;;;;12.49;89.33;101708.91;5052812;28;20186;-70
2023/09/27 05:29:29;;;;;;;9.53;9.07;;;;;;;12.48;89.08;101709.91;5051887;28;20199;-69
2023/09/27 05:31:56;;;;;;;11.87;10.67;;;;;;;12.44;89.16;101709.34;5052948;28;20329;-69
2023/09/27 05:34:23;;;;;;;10.37;9.77;;;;;;;12.41;89.13;101717.66;5052818;28;20677;-69
2023/09/27 05:36:50;;;;;;;13.07;11.77;;;;;;;12.43;89.03;101722.91;5052777;28;20191;-69
2023/09/27 05:39:16;;;;;;;12.10;11.07;;;;;;;12.42;88.63;101724.72;5052739;28;20191;-69
2023/09/27 05:41:43;;;;;;;10.13;9.60;;;;;;;12.33;88.83;101714.84;5052655;28;20258;-69
2023/09/27 05:44:09;;;;;;;12.90;10.60;;;;;;;12.31;88.63;101720.31;5052686;28;20195;-70
2023/09/27 05:46:36;;;;;;;17.77;11.90;;;;;;;12.36;88.82;101725.28;5052980;28;20258;-69
2023/09/27 05:49:04;;;;;;;11.93;11.10;;;;;;;12.42;88.76;101732.78;5052594;28;20195;-69
2023/09/27 05:51:31;;;;;;;13.90;12.70;;;;;;;12.34;88.80;101732.63;5052718;28;20210;-69
2023/09/27 05:53:58;;;;;;;15.10;12.60;;;;;;;12.32;89.09;101731.91;5056541;28;20187;-69
2023/09/27 05:56:25;;;;;;;13.33;12.20;;;;;;;12.33;89.31;101726.41;5056438;28;20612;-69
2023/09/27 05:58:52;;;;;;;11.67;10.53;;;;;;;12.32;89.45;101727.38;5056382;28;20219;-69
2023/09/27 06:01:19;;;;;;;10.33;9.47;;;;;;;12.28;89.41;101719.75;5056656;28;20296;-69
2023/09/27 06:03:46;;;;;;;11.80;10.80;;;;;;;12.27;89.67;101720.75;5056363;28;20256;-69
2023/09/27 06:06:13;;;;;;;10.57;9.67;;;;;;;12.29;89.32;101721.47;5056293;28;20183;-69
2023/09/27 06:08:41;;;;;;;11.77;10.97;;;;;;;12.38;89.23;101739.41;5056555;28;20187;-69
2023/09/27 06:11:09;;;;;;;13.87;12.63;;;;;;;12.47;88.05;101743.09;5056250;28;20219;-70
2023/09/27 06:13:38;;;;;;;12.90;12.00;;;;;;;12.58;87.71;101767.94;5056193;28;20195;-70
2023/09/27 06:16:13;;;;;;;14.97;12.10;;;;;;;12.49;88.43;101758.03;5056399;28;20512;-70
2023/09/27 06:18:40;;;;;;;14.23;12.80;;;;;;;12.33;89.28;101749.69;5056358;28;20202;-70
2023/09/27 06:21:07;;;;;;;12.93;12.07;;;;;;;12.30;90.12;101729.38;5055857;28;20207;-69
2023/09/27 06:23:35;;;;;;;13.63;12.63;;;;;;;12.30;90.96;101723.16;5056494;28;20187;-69
2023/09/27 06:26:02;;;;;;;13.23;12.20;;;;;;;12.39;90.72;101735.72;5056526;28;20195;-69
2023/09/27 06:28:29;;;;;;;17.20;14.27;;;;;;;12.51;91.00;101744.50;5055893;28;20655;-69
2023/09/27 06:30:55;;;;;;;19.60;14.00;;;;;;;12.67;90.80;101744.81;5055737;28;20219;-69
2023/09/27 06:33:22;;;;;;;14.03;13.03;;;;;;;12.69;90.79;101730.25;5055787;28;20270;-69
2023/09/27 06:35:48;;;;;;;13.87;12.83;;;;;;;12.79;91.30;101723.06;5056051;28;20183;-69
2023/09/27 06:38:19;;;;;;;15.40;13.27;;;;;;;12.95;91.16;101735.03;5056232;28;20183;-69
2023/09/27 06:40:45;;;;;;;15.10;13.43;;;;;;;13.10;91.29;101737.19;5056114;28;20207;-69
2023/09/27 06:43:14;;;;;;;14.57;13.23;;;;;;;13.20;91.13;101739.84;5056166;28;20191;-69
2023/09/27 06:45:40;;;;;;;14.67;13.40;;;;;;;13.29;91.35;101744.34;5055547;28;20530;-69
2023/09/27 06:48:07;;;;;;;13.90;12.67;;;;;;;13.35;91.14;101735.75;5055535;28;20648;-70
2023/09/27 06:50:33;;;;;;;20.30;14.40;;;;;;;13.47;92.28;101723.81;5055884;28;20215;-69
2023/09/27 06:53:00;;;;;;;18.90;16.90;;;;;;;13.62;93.14;101714.28;5056161;28;20211;-69
2023/09/27 06:55:49;;;;;;;21.57;18.43;;;;;;;13.76;93.59;101712.97;5055390;28;20265;-69
2023/09/27 06:58:22;;;;;;;20.87;18.63;;;;;;;13.83;93.30;101703.34;5055342;28;20564;-69
2023/09/27 07:00:51;;;;;;;22.53;17.53;;;;;;;13.89;92.91;101708.09;5055517;28;20214;-69
2023/09/27 07:03:19;;;;;;;22.00;18.40;;;;;;;13.94;92.83;101721.09;5054956;28;20541;-69
2023/09/27 07:05:46;;;;;;;28.90;18.00;;;;;;;13.97;93.01;101720.78;5055144;28;20187;-69
2023/09/27 07:08:13;;;;;;;17.97;16.20;;;;;;;14.03;92.36;101721.06;5055422;28;20200;-69
2023/09/27 07:10:40;;;;;;;15.53;14.03;;;;;;;14.08;92.44;101724.16;5055542;28;20294;-69
2023/09/27 07:13:07;;;;;;;18.03;15.43;;;;;;;14.15;92.48;101725.22;5055790;28;20658;-69
2023/09/27 07:15:33;;;;;;;13.90;13.00;;;;;;;14.19;92.28;101721.22;5055121;28;20191;-69
2023/09/27 07:18:00;;;;;;;16.13;14.83;;;;;;;14.24;92.10;101715.41;5054911;28;20219;-69
2023/09/27 07:20:28;;;;;;;14.87;13.43;;;;;;;14.28;92.10;101721.31;5054839;28;20249;-69
2023/09/27 07:22:55;;;;;;;15.00;13.63;;;;;;;14.33;91.98;101722.56;5054916;28;20183;-69
2023/09/27 07:25:23;;;;;;;16.50;13.97;;;;;;;14.37;91.72;101728.53;5054864;28;20192;-69
2023/09/27 07:27:51;;;;;;;16.07;13.87;;;;;;;14.39;91.77;101734.59;5055024;28;20187;-69
2023/09/27 07:30:23;;;;;;;18.43;13.93;;;;;;;14.43;91.50;101744.88;5054850;28;20721;-69
2023/09/27 07:32:50;;;;;;;16.07;14.63;;;;;;;14.49;91.33;101741.59;5055006;28;20628;-69
2023/09/27 07:35:18;;;;;;;16.63;12.73;;;;;;;14.50;91.24;101748.69;5054673;28;20215;-69
2023/09/27 07:37:45;;;;;;;13.03;12.10;;;;;;;14.51;91.18;101744.97;5054599;28;20187;-69
2023/09/27 07:40:12;;;;;;;20.27;15.90;;;;;;;14.54;91.04;101733.94;5054485;28;20198;-69
2023/09/27 07:42:43;;;;;;;15.53;13.47;;;;;;;14.56;91.11;101733.75;5054427;28;20230;-69
2023/09/27 07:45:21;;;;;;;19.30;14.90;;;;;;;14.58;90.99;101727.25;5054440;28;20206;-69
2023/09/27 07:47:50;;;;;;;23.83;16.40;;;;;;;14.68;91.09;101729.00;5054982;28;20179;-69
2023/09/27 07:50:21;;;;;;;15.73;13.47;;;;;;;14.78;90.86;101733.31;5054185;28;20211;-69
2023/09/27 07:52:48;;;;;;;14.90;13.53;;;;;;;14.87;90.69;101724.31;5054770;28;20182;-69
2023/09/27 07:55:17;;;;;;;16.27;14.67;;;;;;;14.98;90.45;101732.13;5054227;28;20187;-69
2023/09/27 07:57:43;;;;;;;16.23;14.43;;;;;;;15.11;90.69;101725.53;5054698;28;20187;-69
2023/09/27 08:00:15;;;;;;;14.27;13.07;;;;;;;15.24;90.47;101728.63;5054708;28;20186;-69
2023/09/27 08:02:43;;;;;;;13.87;12.67;;;;;;;15.37;90.44;101727.22;5054647;28;20191;-69
2023/09/27 08:05:09;;;;;;;14.00;12.70;;;;;;;15.52;90.35;101717.59;5054434;28;20188;-69
2023/09/27 08:07:38;;;;;;;15.33;13.83;;;;;;;15.69;90.05;101705.03;5054229;28;20190;-69
2023/09/27 08:10:06;;;;;;;14.33;12.97;;;;;;;15.79;89.79;101697.66;5053753;28;20299;-69
2023/09/27 08:12:47;;;;;;;16.37;13.60;;;;;;;15.92;89.08;101698.06;5054410;28;20179;-69
2023/09/27 08:15:15;;;;;;;13.13;11.80;;;;;;;16.02;88.52;101694.38;5053159;28;20195;-69
2023/09/27 08:17:42;;;;;;;11.50;10.70;;;;;;;16.11;87.99;101707.75;5054066;28;20187;-69
2023/09/27 08:20:12;;;;;;;11.50;10.47;;;;;;;16.21;87.51;101711.13;5053707;28;20280;-69
2023/09/27 08:22:42;;;;;;;14.50;12.60;;;;;;;16.28;87.19;101714.03;5053928;28;20217;-70
2023/09/27 08:25:14;;;;;;;14.70;12.67;;;;;;;16.38;86.40;101715.56;5053833;28;20195;-70
2023/09/27 08:27:42;;;;;;;19.70;12.23;;;;;;;16.45;85.87;101710.34;5053570;28;20187;-70
2023/09/27 08:30:09;;;;;;;16.90;13.17;;;;;;;16.54;85.60;101698.56;5053395;28;20212;-69
2023/09/27 08:32:35;;;;;;;17.23;11.60;;;;;;;16.65;85.49;101700.97;5053517;28;20183;-69
2023/09/27 08:35:02;;;;;;;15.60;11.43;;;;;;;16.72;84.92;101691.16;5053690;28;20195;-69
2023/09/27 08:37:29;;;;;;;11.93;10.73;;;;;;;16.79;84.86;101696.75;5053673;28;20192;-69
2023/09/27 08:39:56;;;;;;;12.97;10.50;;;;;;;16.92;83.99;101698.94;5053297;28;20187;-70
2023/09/27 08:42:23;;;;;;;14.90;10.53;;;;;;;17.05;83.97;101699.28;5053150;28;20213;-70
2023/09/27 08:44:52;;;;;;;12.10;11.17;;;;;;;17.08;82.22;101694.38;5053577;28;20188;-70
2023/09/27 08:47:19;;;;;;;11.70;10.40;;;;;;;17.16;82.01;101690.81;5053226;28;20262;-70
2023/09/27 08:49:49;;;;;;;11.33;10.37;;;;;;;17.17;81.89;101681.72;5053647;28;20215;-70
2023/09/27 08:52:17;;;;;;;10.07;9.27;;;;;;;17.18;81.41;101676.16;5053389;28;20215;-69
2023/09/27 08:54:43;;;;;;;13.40;11.40;;;;;;;17.24;81.31;101670.03;5053135;28;20187;-69
2023/09/27 08:57:11;;;;;;;19.30;10.67;;;;;;;17.35;81.29;101676.94;5053137;28;20218;-69
2023/09/27 08:59:38;;;;;;;12.17;11.03;;;;;;;17.42;81.16;101677.94;5053031;28;20202;-69
2023/09/27 09:02:05;;;;;;;13.03;11.87;;;;;;;17.54;80.49;101675.69;5053263;28;20203;-69
2023/09/27 09:04:35;;;;;;;13.43;11.40;;;;;;;17.62;80.91;101668.44;5053067;28;20187;-69
2023/09/27 09:07:02;;;;;;;12.53;11.43;;;;;;;17.80;81.08;101668.19;5053113;28;20198;-69
2023/09/27 09:09:30;;;;;;;17.90;12.63;;;;;;;17.90;80.31;101666.13;5052945;28;20221;-69
2023/09/27 09:12:09;;;;;;;19.83;12.70;;;;;;;18.00;79.78;101677.56;5053100;28;20247;-69
2023/09/27 09:14:49;;;;;;;23.73;12.47;;;;;;;18.12;79.37;101675.34;5053087;28;20199;-69
2023/09/27 09:17:19;;;;;;;15.53;10.47;;;;;;;18.19;78.96;101671.72;5053463;28;20183;-69
2023/09/27 09:20:17;;;;;;;14.47;11.67;;;;;;;18.29;78.97;101663.34;5053218;28;20179;-69
2023/09/27 09:22:45;;;;;;;9.57;7.93;;;;;;;18.36;79.17;101660.78;5052908;28;20203;-69
2023/09/27 09:25:11;;;;;;;16.53;9.70;;;;;;;18.46;78.88;101666.81;5052884;28;20570;-69
2023/09/27 09:27:38;;;;;;;16.80;9.87;;;;;;;18.60;78.75;101663.34;5054978;28;20198;-69
2023/09/27 09:30:11;;;;;;;9.13;8.50;;;;;;;18.70;78.31;101664.81;5057128;28;20256;-69
2023/09/27 09:32:49;;;;;;;13.73;8.67;;;;;;;18.86;76.97;101668.38;5056905;28;20191;-70
2023/09/27 09:35:32;;;;;;;12.80;9.70;;;;;;;18.97;76.53;101673.34;5057527;28;20603;-71
2023/09/27 09:37:59;;;;;;;9.90;9.03;;;;;;;19.02;76.21;101684.50;5056922;28;20258;-71
2023/09/27 09:40:26;;;;;;;9.73;8.97;;;;;;;19.02;76.52;101669.06;5057268;28;20206;-70
2023/09/27 09:42:52;;;;;;;9.47;8.53;;;;;;;19.08;75.73;101672.94;5056738;28;20191;-70
2023/09/27 09:45:20;;;;;;;10.47;9.33;;;;;;;19.10;76.24;101670.88;5057206;28;20269;-71
2023/09/27 09:47:46;;;;;;;9.43;8.43;;;;;;;19.12;75.47;101672.38;5056550;28;20187;-71
2023/09/27 09:50:18;;;;;;;13.10;8.30;;;;;;;19.20;75.54;101670.59;5056475;28;20191;-69
2023/09/27 09:52:59;;;;;;;8.43;7.77;;;;;;;19.21;74.92;101662.31;5056629;28;20631;-69
2023/09/27 09:55:31;;;;;;;8.47;7.83;;;;;;;19.28;74.75;101656.97;5057033;28;20172;-70
2023/09/27 09:58:29;;;;;;;9.60;8.63;;;;;;;19.35;73.74;101647.91;5056608;28;20404;-71
2023/09/27 10:00:58;;;;;;;8.83;8.13;;;;;;;19.45;73.81;101653.06;5056341;28;20211;-69
2023/09/27 10:03:33;;;;;;;8.17;7.43;;;;;;;19.52;73.69;101645.88;5056674;28;20187;-69
2023/09/27 10:06:02;;;;;;;8.53;6.80;;;;;;;19.56;73.19;101649.91;5056339;28;20171;-69
2023/09/27 10:08:34;;;;;;;7.50;6.90;;;;;;;19.68;73.37;101648.41;5056188;28;20599;-69
2023/09/27 10:11:04;;;;;;;7.97;7.37;;;;;;;19.88;73.13;101649.50;5056762;28;20577;-69
2023/09/27 10:13:39;;;;;;;7.50;6.97;;;;;;;20.04;72.37;101651.13;5056524;28;20195;-69
2023/09/27 10:16:08;;;;;;;7.73;7.13;;;;;;;20.17;69.92;101654.00;5056403;28;20171;-69
2023/09/27 10:18:40;;;;;;;6.37;6.07;;;;;;;20.29;69.84;101652.50;5056627;28;20202;-70
2023/09/27 10:21:12;;;;;;;6.30;5.97;;;;;;;20.38;69.31;101655.94;5055962;28;20200;-70
2023/09/27 10:23:39;;;;;;;14.10;6.30;;;;;;;20.46;69.42;101658.53;5056557;28;20214;-70
2023/09/27 10:26:25;;;;;;;11.83;5.87;;;;;;;20.51;69.70;101665.06;5056005;28;20230;-70
2023/09/27 10:29:00;;;;;;;7.07;6.70;;;;;;;20.59;69.22;101649.66;5056477;28;20229;-71
2023/09/27 10:31:28;;;;;;;12.57;6.20;;;;;;;20.70;68.43;101652.72;5056239;28;20210;-71
2023/09/27 10:33:55;;;;;;;8.57;5.47;;;;;;;20.67;68.86;101639.50;5055732;28;20192;-71
2023/09/27 10:36:21;;;;;;;6.07;5.73;;;;;;;20.62;68.88;101631.13;5055793;28;20183;-71
2023/09/27 10:38:50;;;;;;;5.73;5.60;;;;;;;20.64;69.28;101629.03;5055442;28;20551;-71
2023/09/27 10:41:43;;;;;;;5.73;5.53;;;;;;;20.71;68.90;101627.19;5055590;28;20207;-70
2023/09/27 10:44:10;;;;;;;6.37;5.93;;;;;;;20.83;68.01;101636.53;5056219;28;20229;-70
2023/09/27 10:46:45;;;;;;;5.97;5.57;;;;;;;20.94;67.50;101629.69;5056106;28;20274;-70
2023/09/27 10:49:12;;;;;;;6.00;5.90;;;;;;;21.02;65.96;101628.69;5055806;28;20201;-70
2023/09/27 10:51:39;;;;;;;5.57;5.07;;;;;;;21.05;65.89;101622.88;5055935;28;20348;-70
2023/09/27 10:54:08;;;;;;;6.00;5.40;;;;;;;21.09;65.21;101622.25;5055483;28;20206;-70
2023/09/27 10:56:35;;;;;;;6.20;5.60;;;;;;;21.14;65.63;101616.25;5055359;28;20191;-70
2023/09/27 10:59:03;;;;;;;9.10;5.80;;;;;;;21.23;65.50;101605.03;5055403;28;20274;-70
2023/09/27 11:01:31;;;;;;;5.83;5.53;;;;;;;21.32;64.81;101603.00;5055513;28;20211;-69
2023/09/27 11:03:59;;;;;;;4.70;4.50;;;;;;;21.40;63.57;101592.78;5055248;28;20659;-69
2023/09/27 11:06:27;;;;;;;13.13;4.90;;;;;;;21.43;63.31;101592.38;5055485;28;20183;-69
2023/09/27 11:09:07;;;;;;;6.10;5.80;;;;;;;21.58;63.28;101585.97;5055147;28;20191;-70
2023/09/27 11:11:36;;;;;;;6.07;5.73;;;;;;;21.64;63.12;101590.63;5054933;28;20570;-70
2023/09/27 11:14:03;;;;;;;4.97;4.87;;;;;;;21.65;63.11;101586.81;5055190;28;20736;-70
2023/09/27 11:16:29;;;;;;;5.33;5.20;;;;;;;21.66;63.58;101583.91;5055348;28;20187;-70
2023/09/27 11:18:58;;;;;;;5.37;5.07;;;;;;;21.64;63.17;101574.28;5054985;28;20651;-70